Ticaboo, Utah
Current Conditions -  °F | °C
As of 3:35 PM on Monday 22 Dec 2014 (Local Time) from KBDG Reporting Station
Overcast Overcast  
Wind Chill: 36°   Ceiling: 6500
Heat Index: 44°   Visibility: 10mi
Dew Point: 33°   Wind: 15mph
Humidity: 68%   Direction: 300°WNW
Pressure: 29.88"   Gusts: 28mph
Location:  37.6208°N, 109.479°W
Report Text: KBDG 222235Z AUTO 30013G24KT 10SM SCT035 BKN065 OVC090 06/01 A2988 RMK AO1 T00640008
Loading
Personal Weather Stations






























Interactive Weather Map New forecast layout! Learn more

10-Day Weather Forecast

Advertisements
Track Severe Weather on mobile